createdAt,value
2023-03-23T16:00:29.422Z,37.00
2023-03-23T16:03:59.810Z,37.61
2023-03-23T16:07:03.011Z,37.33
2023-03-23T16:10:07.875Z,37.98
2023-03-23T16:13:11.184Z,38.25
2023-03-23T16:16:19.646Z,39.28
2023-03-23T16:19:24.668Z,39.39
2023-03-23T16:22:27.594Z,40.04
2023-03-23T16:25:31.450Z,40.12
2023-03-23T16:28:34.825Z,40.82
2023-03-23T16:31:37.569Z,40.96
2023-03-23T16:34:40.723Z,41.09
2023-03-23T16:38:07.660Z,41.67
2023-03-23T16:41:11.659Z,41.31
2023-03-23T16:44:14.656Z,41.78
2023-03-23T16:47:19.094Z,41.76
2023-03-23T16:50:22.240Z,41.62
2023-03-23T16:53:25.182Z,41.64
2023-03-23T16:56:28.048Z,41.88
2023-03-23T16:59:30.971Z,42.02
2023-03-23T17:02:33.922Z,41.38
2023-03-23T17:05:37.639Z,41.82
2023-03-23T17:08:40.389Z,42.23
2023-03-23T17:11:43.179Z,42.20
2023-03-23T17:14:46.125Z,42.69
2023-03-23T17:17:48.949Z,42.82
2023-03-23T17:20:53.811Z,43.05
2023-03-23T17:23:56.703Z,42.98
2023-03-23T17:26:59.432Z,42.92
2023-03-23T17:30:03.155Z,42.72
2023-03-23T17:33:07.335Z,42.95
2023-03-23T17:36:10.804Z,43.42
2023-03-23T17:39:14.593Z,43.97
2023-03-23T17:42:18.296Z,44.14
2023-03-23T17:45:21.418Z,44.87
2023-03-23T17:48:24.179Z,44.83
2023-03-23T17:51:27.422Z,45.05
2023-03-23T17:54:31.182Z,45.15
2023-03-23T17:57:35.284Z,45.30
2023-03-23T18:00:38.899Z,48.47
2023-03-23T18:03:42.543Z,48.87
2023-03-23T18:06:47.204Z,49.44
2023-03-23T18:09:50.744Z,50.58
2023-03-23T18:12:53.741Z,51.12
2023-03-23T18:15:58.232Z,51.56
2023-03-23T18:19:01.289Z,51.53
2023-03-23T18:22:04.260Z,51.50
2023-03-23T18:25:07.227Z,51.86
2023-03-23T18:28:10.193Z,51.62
2023-03-23T18:31:16.212Z,52.32
2023-03-23T18:34:19.337Z,52.55
2023-03-23T18:37:22.329Z,52.82
2023-03-23T18:40:25.332Z,52.80
2023-03-23T18:43:28.405Z,53.11
2023-03-23T18:46:31.692Z,53.21
2023-03-23T18:49:34.967Z,53.93
2023-03-23T18:52:38.782Z,54.39
2023-03-23T18:55:45.584Z,54.62
2023-03-23T18:58:52.539Z,55.44
2023-03-23T19:01:55.874Z,56.65
2023-03-23T19:04:59.164Z,56.87
2023-03-23T19:08:03.772Z,56.46
2023-03-23T19:11:08.430Z,56.41
2023-03-23T19:14:12.097Z,57.06
2023-03-23T19:17:15.149Z,56.91
2023-03-23T19:20:31.555Z,57.23
2023-03-23T19:23:40.521Z,57.73
2023-03-23T19:26:46.498Z,58.20
2023-03-23T19:29:49.792Z,58.83
2023-03-23T19:32:53.099Z,59.59
2023-03-23T19:36:07.371Z,59.47
2023-03-23T19:39:15.535Z,59.66
2023-03-23T19:42:20.469Z,59.18
2023-03-23T19:45:23.796Z,59.41
2023-03-23T19:48:26.958Z,59.86
2023-03-23T19:51:30.838Z,59.69
2023-03-23T19:54:35.801Z,59.36
2023-03-23T19:57:39.641Z,59.76
2023-03-23T20:03:46.752Z,59.71
2023-03-23T20:06:51.123Z,59.76
2023-03-23T20:09:54.618Z,60.64
2023-03-23T20:13:00.012Z,60.68
2023-03-23T20:16:03.253Z,60.77
2023-03-23T20:19:06.398Z,60.99
2023-03-23T20:22:09.599Z,61.32
2023-03-23T20:25:13.387Z,61.72
2023-03-23T20:28:16.764Z,61.91
2023-03-23T20:31:26.564Z,61.49
2023-03-23T20:34:30.808Z,61.38
2023-03-23T20:37:34.879Z,61.19
2023-03-23T20:40:37.933Z,60.93
2023-03-23T20:43:43.177Z,61.06
2023-03-23T20:46:48.197Z,61.23
2023-03-23T20:49:53.184Z,61.13
2023-03-23T20:52:58.044Z,61.28
2023-03-23T20:56:05.600Z,61.44
2023-03-23T20:59:09.254Z,61.69
2023-03-23T21:02:17.363Z,61.03
2023-03-23T21:05:20.705Z,61.94
2023-03-23T21:08:23.968Z,61.92
2023-03-23T21:11:27.413Z,62.14
2023-03-23T21:14:30.424Z,61.73
2023-03-23T21:17:33.378Z,61.63
2023-03-23T21:20:37.805Z,60.31
2023-03-23T21:23:46.586Z,59.93
2023-03-23T21:26:50.225Z,59.33
2023-03-23T21:30:00.319Z,58.91
2023-03-23T21:33:03.290Z,58.78
2023-03-23T21:36:07.099Z,59.51
2023-03-23T21:39:10.621Z,61.47
2023-03-23T21:42:16.586Z,62.12
2023-03-23T21:45:21.124Z,62.41
2023-03-23T21:48:25.313Z,62.29
2023-03-23T21:51:29.925Z,62.28
2023-03-23T21:54:34.383Z,61.92
2023-03-23T21:57:37.306Z,61.31
2023-03-23T22:00:41.386Z,61.97
2023-03-23T22:03:44.935Z,61.96
2023-03-23T22:06:48.127Z,61.88
2023-03-23T22:09:51.540Z,62.02
2023-03-23T22:12:55.589Z,61.91
2023-03-23T22:16:01.296Z,62.12
2023-03-23T22:19:04.435Z,61.74
2023-03-23T22:22:07.689Z,61.87
2023-03-23T22:25:10.743Z,62.11
2023-03-23T22:28:13.836Z,61.89
2023-03-23T22:31:25.082Z,62.46
2023-03-23T22:34:28.332Z,62.36
2023-03-23T22:37:31.159Z,62.35
2023-03-23T22:40:33.923Z,62.67
2023-03-23T22:43:37.792Z,63.08
2023-03-23T22:46:41.464Z,62.97
2023-03-23T22:49:44.304Z,63.29
2023-03-23T22:52:47.637Z,62.81
2023-03-23T22:55:53.207Z,63.84
2023-03-23T22:58:58.935Z,63.38
2023-03-23T23:02:01.862Z,63.08
2023-03-23T23:05:05.482Z,63.25
2023-03-23T23:08:12.495Z,63.62
2023-03-23T23:11:17.478Z,63.92
2023-03-23T23:14:20.256Z,63.69
2023-03-23T23:17:23.005Z,64.01
2023-03-23T23:20:26.828Z,64.13
2023-03-23T23:23:29.623Z,65.20
2023-03-23T23:26:32.437Z,65.31
2023-03-23T23:29:35.224Z,64.53
2023-03-23T23:32:38.471Z,65.06
2023-03-23T23:35:41.885Z,64.24
2023-03-23T23:38:45.255Z,64.62
2023-03-23T23:41:48.256Z,64.51
2023-03-23T23:44:51.054Z,64.61
2023-03-23T23:47:54.231Z,64.94
2023-03-23T23:50:57.096Z,64.12
2023-03-23T23:54:01.670Z,64.47
2023-03-23T23:57:05.860Z,64.07
